Preview of NWS' New Version of Forecast
This preview is not operational and should not be used for support decisions.

Terminal Aerodrome Forecast (TAF)

Issued by National Weather Service (NWS)

                            
000
FTUS41 KGYX 180901 AAA
TAFRKD
TAF AMD
KRKD 180901Z 1809/1906 11003KT 1/2SM FG OVC001
     FM181400 14005KT 5SM BR BKN005
     FM182300 14003KT 2SM BR OVC002=